D83 weather

Boonville Airport
Boonville, California, United States

Public forecast

Using degrees Fahrenheit for public forecast. Weather courtesy of forecast.io.

METAR (pilot weather report)

Closest report is Ukiah Municipal Airport, 10.9 nm (20.1 km) NE. Retrieved 2019/08/25 14:56 UTC (5 minutes ago):

KUKI 251456Z AUTO 00000KT 10SM CLR 18/11 A3001 RMK AO2 SLP155 T01780111 52009

TAF (pilot weather forecast)

Closest forecast is Ukiah Municipal Airport, 10.9 nm (20.1 km) NE. Retrieved 2019/08/25 12:39 UTC (2 hours ago):

TAF KUKI 251136Z 2512/2612 00000KT P6SM SKC FM252100 13007KT P6SM SKC FM260000 23009KT P6SM SKC